Time;durP1;ratioP1;P1;durP2;ratioP2;P2;SDS_P1;SDS_P2;PMS_P1;PMS_P2;Temp;Humidity;BMP_temperature;BMP_pressure;BME280_temperature;BME280_humidity;BME280_pressure;Samples;Min_cycle;Max_cycle;Signal;HPM_P1;HPM_P2
2024/01/14 00:00:00;;;;;;;385.35;73.22;;;1.30;99.90;;;;;;5034178;28;20257;-76
2024/01/14 00:02:34;;;;;;;359.08;68.55;;;1.30;99.90;;;;;;5033708;28;20052;-77
2024/01/14 00:05:01;;;;;;;313.70;68.70;;;1.30;99.90;;;;;;5024034;28;20044;-78
2024/01/14 00:07:28;;;;;;;321.10;67.10;;;1.30;99.90;;;;;;5035613;28;20074;-78
2024/01/14 00:09:57;;;;;;;338.02;68.50;;;1.30;99.90;;;;;;5000488;28;20084;-77
2024/01/14 00:12:27;;;;;;;264.95;64.53;;;1.30;99.90;;;;;;5044403;28;20041;-79
2024/01/14 00:14:54;;;;;;;260.85;57.28;;;1.30;99.90;;;;;;5011347;28;20110;-78
2024/01/14 00:17:21;;;;;;;391.38;74.85;;;1.30;99.90;;;;;;5030955;28;20110;-78
2024/01/14 00:19:48;;;;;;;414.08;77.00;;;1.30;99.90;;;;;;4998950;28;20040;-78
2024/01/14 00:22:16;;;;;;;544.75;96.85;;;1.30;99.90;;;;;;5033320;28;21097;-79
2024/01/14 00:24:44;;;;;;;482.27;88.82;;;1.30;99.90;;;;;;5007745;28;20100;-78
2024/01/14 00:27:12;;;;;;;524.80;87.60;;;1.40;99.90;;;;;;5012317;28;20051;-77
2024/01/14 00:29:39;;;;;;;620.38;104.90;;;1.40;99.90;;;;;;5016270;28;20646;-79
2024/01/14 00:32:07;;;;;;;262.45;57.05;;;1.40;99.90;;;;;;5026740;28;20580;-79
2024/01/14 00:34:34;;;;;;;317.80;65.00;;;1.40;99.90;;;;;;5030261;28;20705;-78
2024/01/14 00:37:01;;;;;;;552.15;86.70;;;1.40;99.90;;;;;;4985269;28;20136;-77
2024/01/14 00:39:28;;;;;;;561.92;87.32;;;1.40;99.90;;;;;;5052602;28;20040;-77
2024/01/14 00:41:55;;;;;;;543.72;80.85;;;1.40;99.90;;;;;;5046969;28;20052;-79
2024/01/14 00:44:22;;;;;;;720.40;107.88;;;1.40;99.90;;;;;;5000923;28;20048;-79
2024/01/14 00:46:53;;;;;;;486.58;85.78;;;1.40;99.90;;;;;;5034872;28;20718;-76
2024/01/14 00:49:21;;;;;;;657.55;105.22;;;1.40;99.90;;;;;;5016879;28;20064;-77
2024/01/14 00:51:48;;;;;;;475.85;83.15;;;1.40;99.90;;;;;;5007478;28;20050;-77
2024/01/14 00:54:14;;;;;;;429.95;76.20;;;1.40;99.90;;;;;;5028978;28;20049;-78
2024/01/14 00:56:41;;;;;;;499.38;77.35;;;1.40;99.90;;;;;;5012615;28;20061;-77
2024/01/14 00:59:08;;;;;;;575.60;100.22;;;1.40;99.90;;;;;;5025025;28;20606;-77
2024/01/14 01:01:35;;;;;;;485.65;81.20;;;1.40;99.90;;;;;;5034310;28;20034;-77
2024/01/14 01:04:02;;;;;;;349.02;66.40;;;1.40;99.90;;;;;;5031455;28;20049;-77
2024/01/14 01:06:29;;;;;;;434.42;81.15;;;1.40;99.90;;;;;;5027988;28;20060;-77
2024/01/14 01:08:56;;;;;;;419.20;80.10;;;1.40;99.90;;;;;;5034573;28;20159;-78
2024/01/14 01:11:23;;;;;;;302.95;67.15;;;1.40;99.90;;;;;;5030413;28;20048;-77
2024/01/14 01:13:50;;;;;;;313.08;59.03;;;1.40;99.90;;;;;;5018136;28;20088;-77
2024/01/14 01:16:17;;;;;;;334.05;71.85;;;1.40;99.90;;;;;;5009564;28;20115;-77
2024/01/14 01:18:43;;;;;;;419.65;82.35;;;1.40;99.90;;;;;;5008207;28;20095;-77
2024/01/14 01:21:11;;;;;;;376.90;77.88;;;1.40;99.90;;;;;;5022462;28;20572;-76
2024/01/14 01:23:37;;;;;;;423.85;81.47;;;1.40;99.90;;;;;;5047980;28;20037;-76
2024/01/14 01:26:04;;;;;;;234.32;62.70;;;1.40;99.90;;;;;;5018429;28;20057;-76
2024/01/14 01:28:31;;;;;;;343.52;72.63;;;1.40;99.90;;;;;;5031681;28;20042;-78
2024/01/14 01:30:58;;;;;;;342.75;68.65;;;1.30;99.90;;;;;;5018936;28;20045;-76
2024/01/14 01:33:25;;;;;;;207.18;56.33;;;1.30;99.90;;;;;;5026658;28;20052;-75
2024/01/14 01:35:52;;;;;;;303.23;65.90;;;1.30;99.90;;;;;;5024637;28;20143;-76
2024/01/14 01:38:19;;;;;;;257.10;59.00;;;1.30;99.90;;;;;;5032426;28;21420;-78
2024/01/14 01:40:47;;;;;;;295.55;66.88;;;1.30;99.90;;;;;;5033032;28;20045;-77
2024/01/14 01:43:14;;;;;;;240.73;52.10;;;1.30;99.90;;;;;;5035930;28;20056;-76
2024/01/14 01:45:42;;;;;;;241.55;55.95;;;1.30;99.90;;;;;;5028357;28;20511;-77
2024/01/14 01:48:08;;;;;;;276.83;63.53;;;1.30;99.90;;;;;;5032762;28;20616;-78
2024/01/14 01:50:36;;;;;;;260.27;58.78;;;1.30;99.90;;;;;;5027230;28;20048;-76
2024/01/14 01:53:03;;;;;;;230.25;50.85;;;1.30;99.90;;;;;;5029765;28;20049;-78
2024/01/14 01:55:30;;;;;;;212.57;53.15;;;1.30;99.90;;;;;;5015461;28;22154;-78
2024/01/14 01:57:57;;;;;;;302.25;63.30;;;1.30;99.90;;;;;;5023842;28;20056;-79
2024/01/14 02:00:24;;;;;;;324.40;64.13;;;1.30;99.90;;;;;;5021058;28;20112;-77
2024/01/14 02:02:52;;;;;;;384.40;72.70;;;1.30;99.90;;;;;;5029379;28;20059;-77
2024/01/14 02:05:20;;;;;;;388.80;73.43;;;1.30;99.90;;;;;;5008295;28;20060;-77
2024/01/14 02:07:47;;;;;;;422.38;75.93;;;1.30;99.90;;;;;;5023076;28;20527;-77
2024/01/14 02:10:14;;;;;;;561.50;96.10;;;1.40;99.90;;;;;;5022269;28;20138;-78
2024/01/14 02:12:41;;;;;;;420.23;78.68;;;1.40;99.90;;;;;;5034558;28;20107;-79
2024/01/14 02:15:08;;;;;;;375.77;68.18;;;1.40;99.90;;;;;;5015148;28;20045;-78
2024/01/14 02:17:35;;;;;;;563.13;94.20;;;1.40;99.90;;;;;;5061974;28;20122;-77
2024/01/14 02:20:02;;;;;;;658.75;114.22;;;1.40;99.90;;;;;;5026476;28;20045;-77
2024/01/14 02:22:32;;;;;;;548.58;92.72;;;1.40;99.90;;;;;;5016573;28;20048;-77
2024/01/14 02:25:00;;;;;;;596.50;94.45;;;1.40;99.90;;;;;;4989794;28;20049;-76
2024/01/14 02:27:27;;;;;;;299.80;56.17;;;1.40;99.90;;;;;;5031753;28;20052;-78
2024/01/14 02:29:55;;;;;;;541.67;86.63;;;1.40;99.90;;;;;;5008069;28;20057;-76
2024/01/14 02:32:23;;;;;;;479.88;85.05;;;1.30;99.90;;;;;;5021504;28;20053;-79
2024/01/14 02:34:51;;;;;;;492.92;86.63;;;1.30;99.90;;;;;;5028734;28;20076;-77
2024/01/14 02:37:18;;;;;;;507.77;84.47;;;1.30;99.90;;;;;;5022674;28;20037;-77
2024/01/14 02:39:45;;;;;;;414.85;73.43;;;1.30;99.90;;;;;;5031798;28;20087;-78
2024/01/14 02:42:12;;;;;;;366.00;69.85;;;1.30;99.90;;;;;;5033654;28;20064;-76
2024/01/14 02:44:38;;;;;;;443.55;80.07;;;1.30;99.90;;;;;;5026995;28;20041;-78
2024/01/14 02:47:05;;;;;;;337.77;70.93;;;1.30;99.90;;;;;;5011003;28;20041;-76
2024/01/14 02:49:32;;;;;;;324.00;65.13;;;1.30;99.90;;;;;;5022019;28;20112;-77
2024/01/14 02:51:59;;;;;;;326.40;61.17;;;1.30;99.90;;;;;;5043372;28;20534;-78
2024/01/14 02:54:26;;;;;;;282.17;61.58;;;1.30;99.90;;;;;;5021688;28;20122;-76
2024/01/14 02:56:53;;;;;;;350.38;65.43;;;1.30;99.90;;;;;;5033198;28;20447;-77
2024/01/14 02:59:21;;;;;;;431.75;78.93;;;1.30;99.90;;;;;;5016638;28;20572;-78
2024/01/14 03:01:48;;;;;;;333.42;69.07;;;1.30;99.90;;;;;;4999382;28;20044;-78
2024/01/14 03:04:15;;;;;;;370.88;71.40;;;1.30;99.90;;;;;;5004125;28;20048;-77
2024/01/14 03:06:42;;;;;;;359.08;65.60;;;1.30;99.90;;;;;;5004773;28;20048;-77
2024/01/14 03:09:09;;;;;;;371.38;72.80;;;1.30;99.90;;;;;;5020799;28;20075;-79
2024/01/14 03:11:36;;;;;;;310.50;60.92;;;1.30;99.90;;;;;;5025115;28;20060;-76
2024/01/14 03:14:03;;;;;;;591.78;94.30;;;1.30;99.90;;;;;;5000903;28;20057;-77
2024/01/14 03:16:30;;;;;;;438.48;78.93;;;1.30;99.90;;;;;;5018749;28;20396;-76
2024/01/14 03:18:57;;;;;;;437.88;78.93;;;1.30;99.90;;;;;;5026546;28;20627;-79
2024/01/14 03:21:23;;;;;;;368.42;71.22;;;1.30;99.90;;;;;;5028275;28;20037;-78
2024/01/14 03:23:50;;;;;;;329.40;67.07;;;1.30;99.90;;;;;;4992531;28;20053;-77
2024/01/14 03:26:17;;;;;;;332.65;64.38;;;1.30;99.90;;;;;;4995326;28;20083;-79
2024/01/14 03:28:44;;;;;;;342.95;67.50;;;1.30;99.90;;;;;;5008940;28;20112;-77
2024/01/14 03:31:16;;;;;;;486.88;83.45;;;1.30;99.90;;;;;;5002831;28;20048;-78
2024/01/14 03:33:43;;;;;;;534.88;87.60;;;1.30;99.90;;;;;;5026762;28;20148;-77
2024/01/14 03:36:14;;;;;;;675.80;106.22;;;1.30;99.90;;;;;;4985799;28;20046;-78
2024/01/14 03:38:41;;;;;;;431.38;76.53;;;1.30;99.90;;;;;;5001236;28;20049;-77
2024/01/14 03:41:08;;;;;;;603.22;101.57;;;1.30;99.90;;;;;;5016984;28;20049;-77
2024/01/14 03:43:35;;;;;;;392.35;76.88;;;1.30;99.90;;;;;;5006971;28;20411;-76
2024/01/14 03:46:02;;;;;;;340.67;62.40;;;1.30;99.90;;;;;;5027371;28;20057;-77
2024/01/14 03:48:29;;;;;;;521.95;89.82;;;1.30;99.90;;;;;;5024324;28;20822;-77
2024/01/14 03:50:55;;;;;;;380.25;73.65;;;1.30;99.90;;;;;;5042955;28;20133;-76
2024/01/14 03:53:22;;;;;;;375.95;71.35;;;1.30;99.90;;;;;;5010036;28;20045;-76
2024/01/14 03:55:49;;;;;;;379.48;71.72;;;1.30;99.90;;;;;;5058160;28;20052;-75
2024/01/14 03:58:16;;;;;;;416.35;78.32;;;1.30;99.90;;;;;;5060438;28;20037;-75
2024/01/14 04:00:42;;;;;;;451.98;83.72;;;1.30;99.90;;;;;;5047128;28;20114;-76
2024/01/14 04:03:09;;;;;;;409.15;79.97;;;1.30;99.90;;;;;;4998294;28;20042;-75
2024/01/14 04:05:36;;;;;;;378.85;72.35;;;1.30;99.90;;;;;;4998856;28;20045;-78
2024/01/14 04:08:04;;;;;;;376.10;75.25;;;1.40;99.90;;;;;;4991901;28;20091;-76
2024/01/14 04:10:31;;;;;;;439.80;87.40;;;1.30;99.90;;;;;;5018238;28;20119;-78
2024/01/14 04:12:57;;;;;;;329.67;69.80;;;1.30;99.90;;;;;;5012432;28;20041;-76
2024/01/14 04:15:24;;;;;;;338.02;71.03;;;1.30;99.90;;;;;;5029792;28;20055;-78
2024/01/14 04:17:51;;;;;;;352.17;75.32;;;1.30;99.90;;;;;;5021385;28;20037;-79
2024/01/14 04:20:18;;;;;;;436.30;79.55;;;1.40;99.90;;;;;;5004199;28;20064;-78
2024/01/14 04:22:45;;;;;;;509.05;88.40;;;1.40;99.90;;;;;;5024374;28;20059;-77
2024/01/14 04:25:11;;;;;;;591.72;96.90;;;1.40;99.90;;;;;;5025742;28;20049;-78
2024/01/14 04:27:38;;;;;;;823.70;127.18;;;1.40;99.90;;;;;;5033669;28;20057;-77
2024/01/14 04:30:06;;;;;;;478.98;79.47;;;1.40;99.90;;;;;;5034105;28;20111;-78
2024/01/14 04:32:34;;;;;;;629.33;104.25;;;1.40;99.90;;;;;;5022744;28;20153;-78
2024/01/14 04:35:01;;;;;;;539.15;90.93;;;1.40;99.90;;;;;;5022725;28;20045;-78
2024/01/14 04:37:28;;;;;;;421.98;81.00;;;1.40;99.90;;;;;;5029035;28;20052;-78
2024/01/14 04:39:55;;;;;;;488.77;89.63;;;1.40;99.90;;;;;;5030579;28;20041;-76
2024/01/14 04:42:23;;;;;;;501.25;88.78;;;1.30;99.90;;;;;;5030000;28;20046;-76
2024/01/14 04:44:50;;;;;;;450.75;84.55;;;1.30;99.90;;;;;;5029170;28;20045;-78
2024/01/14 04:47:17;;;;;;;381.77;71.63;;;1.40;99.90;;;;;;5025971;28;20072;-78
2024/01/14 04:49:43;;;;;;;414.83;80.22;;;1.30;99.90;;;;;;5029002;28;20095;-76
2024/01/14 04:52:10;;;;;;;468.83;85.95;;;1.30;99.90;;;;;;5033754;28;20045;-77
2024/01/14 04:54:37;;;;;;;334.20;70.15;;;1.30;99.90;;;;;;5012661;28;20938;-78
2024/01/14 04:57:04;;;;;;;467.00;84.22;;;1.30;99.90;;;;;;5035699;28;20099;-76
2024/01/14 04:59:31;;;;;;;341.30;68.55;;;1.30;99.90;;;;;;5010608;28;20065;-76
2024/01/14 05:01:57;;;;;;;330.50;67.60;;;1.30;99.90;;;;;;5029180;28;20521;-77
2024/01/14 05:04:24;;;;;;;337.83;71.88;;;1.30;99.90;;;;;;5023315;28;20111;-78
2024/01/14 05:06:51;;;;;;;352.67;75.20;;;1.30;99.90;;;;;;5039017;28;20033;-77
2024/01/14 05:09:18;;;;;;;280.17;60.40;;;1.40;99.90;;;;;;5030885;28;20053;-76
2024/01/14 05:11:45;;;;;;;254.20;56.42;;;1.30;99.90;;;;;;5018760;28;20571;-76
2024/01/14 05:14:11;;;;;;;237.00;55.60;;;1.30;99.90;;;;;;5026164;28;20056;-77
2024/01/14 05:16:38;;;;;;;308.02;64.90;;;1.30;99.90;;;;;;5018697;28;20037;-77
2024/01/14 05:19:05;;;;;;;410.38;77.07;;;1.30;99.90;;;;;;5015969;28;20127;-79
2024/01/14 05:21:32;;;;;;;351.83;71.18;;;1.30;99.90;;;;;;5025512;28;20041;-79
2024/01/14 05:23:59;;;;;;;396.27;70.15;;;1.30;99.90;;;;;;5025597;28;21067;-78
2024/01/14 05:26:26;;;;;;;388.92;69.55;;;1.30;99.90;;;;;;5007052;28;20569;-76
2024/01/14 05:28:55;;;;;;;423.02;80.00;;;1.30;99.90;;;;;;5026796;28;20743;-76
2024/01/14 05:31:21;;;;;;;441.23;82.85;;;1.30;99.90;;;;;;5019178;28;20052;-75
2024/01/14 05:33:49;;;;;;;419.38;78.88;;;1.40;99.90;;;;;;5008817;28;20053;-77
2024/01/14 05:36:16;;;;;;;383.10;72.15;;;1.30;99.90;;;;;;5008366;28;20046;-76
2024/01/14 05:38:43;;;;;;;623.00;105.05;;;1.30;99.90;;;;;;5012204;28;20045;-77
2024/01/14 05:41:12;;;;;;;369.88;69.18;;;1.30;99.90;;;;;;5027179;28;20049;-78
2024/01/14 05:43:39;;;;;;;362.65;73.93;;;1.30;99.90;;;;;;5021124;28;20153;-76
2024/01/14 05:46:06;;;;;;;356.70;69.85;;;1.30;99.90;;;;;;5023096;28;20057;-77
2024/01/14 05:48:33;;;;;;;301.15;60.10;;;1.40;99.90;;;;;;5025726;28;20048;-76
2024/01/14 05:51:01;;;;;;;314.08;65.40;;;1.30;99.90;;;;;;5033193;28;20045;-78
2024/01/14 05:53:28;;;;;;;447.55;81.50;;;1.30;99.90;;;;;;5024953;28;20045;-77
2024/01/14 05:55:54;;;;;;;499.77;86.75;;;1.30;99.90;;;;;;5020470;28;20533;-76
2024/01/14 05:58:21;;;;;;;442.50;78.45;;;1.30;99.90;;;;;;5012217;28;20067;-76
2024/01/14 06:00:48;;;;;;;382.67;70.57;;;1.30;99.90;;;;;;5007733;28;20048;-76
2024/01/14 06:03:15;;;;;;;538.63;92.88;;;1.30;99.90;;;;;;5013563;28;20052;-77
2024/01/14 06:05:42;;;;;;;492.02;86.78;;;1.30;99.90;;;;;;5022402;28;20380;-78
2024/01/14 06:08:09;;;;;;;505.55;84.72;;;1.30;99.90;;;;;;5008954;28;20095;-77
2024/01/14 06:10:36;;;;;;;486.52;83.28;;;1.30;99.90;;;;;;5020431;28;20916;-78
2024/01/14 06:13:05;;;;;;;671.92;104.68;;;1.40;99.90;;;;;;4983874;28;20077;-77
2024/01/14 06:15:32;;;;;;;553.50;90.72;;;1.40;99.90;;;;;;5020494;28;20132;-76
2024/01/14 06:18:00;;;;;;;995.20;147.80;;;1.40;99.90;;;;;;5024952;28;20100;-77
2024/01/14 06:20:27;;;;;;;836.88;120.75;;;1.30;99.90;;;;;;5023123;28;20549;-77
2024/01/14 06:22:54;;;;;;;555.58;90.57;;;1.30;99.90;;;;;;5011258;28;20048;-77
2024/01/14 06:25:21;;;;;;;802.90;119.28;;;1.40;99.90;;;;;;4998578;28;20037;-77
2024/01/14 06:27:47;;;;;;;317.42;66.32;;;1.30;99.90;;;;;;5012761;28;20717;-78
2024/01/14 06:30:15;;;;;;;227.93;50.08;;;1.30;99.90;;;;;;5020420;28;20400;-79
2024/01/14 06:32:42;;;;;;;244.45;53.38;;;1.30;99.90;;;;;;5020119;28;20057;-76
2024/01/14 06:35:08;;;;;;;293.23;60.83;;;1.30;99.90;;;;;;5017537;28;20531;-77
2024/01/14 06:37:37;;;;;;;398.33;77.90;;;1.30;99.90;;;;;;5026801;28;20053;-78
2024/01/14 06:40:05;;;;;;;524.90;95.20;;;1.40;99.90;;;;;;5017930;28;20057;-76
2024/01/14 06:42:32;;;;;;;300.52;62.88;;;1.40;99.90;;;;;;5015204;28;20091;-77
2024/01/14 06:44:59;;;;;;;419.25;80.10;;;1.30;99.90;;;;;;5009213;28;20148;-77
2024/01/14 06:47:26;;;;;;;404.13;74.95;;;1.40;99.90;;;;;;5018727;28;20076;-77
2024/01/14 06:49:54;;;;;;;397.52;81.40;;;1.40;99.90;;;;;;5021837;28;20055;-78
2024/01/14 06:52:36;;;;;;;452.33;84.68;;;1.30;99.90;;;;;;5024102;28;20986;-79
2024/01/14 06:55:06;;;;;;;349.92;67.03;;;1.40;99.90;;;;;;5012346;28;20045;-78
2024/01/14 06:57:33;;;;;;;283.75;56.05;;;1.40;99.90;;;;;;5021155;28;20041;-78
2024/01/14 07:00:03;;;;;;;313.23;63.88;;;1.40;99.90;;;;;;5020401;28;20698;-78
2024/01/14 07:02:31;;;;;;;295.90;59.92;;;1.40;99.90;;;;;;5023233;28;20045;-78
2024/01/14 07:04:57;;;;;;;306.52;66.07;;;1.40;99.90;;;;;;5006175;28;20096;-78
2024/01/14 07:07:24;;;;;;;384.80;77.43;;;1.30;99.90;;;;;;5009973;28;20330;-77
2024/01/14 07:09:51;;;;;;;285.70;57.85;;;1.30;99.90;;;;;;5034823;28;20740;-78
2024/01/14 07:12:18;;;;;;;398.88;73.78;;;1.30;99.90;;;;;;5060790;28;20057;-77
2024/01/14 07:14:51;;;;;;;405.88;74.03;;;1.30;99.90;;;;;;5047823;28;20037;-76
2024/01/14 07:17:18;;;;;;;358.08;71.05;;;1.30;99.90;;;;;;5056551;28;20033;-79
2024/01/14 07:19:45;;;;;;;388.15;77.13;;;1.30;99.90;;;;;;5009320;28;20131;-78
2024/01/14 07:22:12;;;;;;;358.67;66.28;;;1.30;99.90;;;;;;5025869;28;20141;-78
2024/01/14 07:24:39;;;;;;;475.33;82.45;;;1.30;99.90;;;;;;5027199;28;20470;-79
2024/01/14 07:27:06;;;;;;;473.02;83.95;;;1.30;99.90;;;;;;5005082;28;20044;-78
2024/01/14 07:29:33;;;;;;;685.70;111.43;;;1.30;99.90;;;;;;5055242;28;20392;-79
2024/01/14 07:32:00;;;;;;;540.60;87.85;;;1.30;99.90;;;;;;5001863;28;20056;-77
2024/01/14 07:34:31;;;;;;;565.72;95.78;;;1.30;99.90;;;;;;5016290;28;20615;-77
2024/01/14 07:36:58;;;;;;;514.40;84.10;;;1.30;99.90;;;;;;5024811;28;20033;-77
2024/01/14 07:39:25;;;;;;;383.60;72.75;;;1.30;99.90;;;;;;5029619;28;20129;-76
2024/01/14 07:41:52;;;;;;;518.35;90.70;;;1.30;99.90;;;;;;5039282;28;20073;-77
2024/01/14 07:44:19;;;;;;;241.98;48.10;;;1.30;99.90;;;;;;5023263;28;20052;-77
2024/01/14 07:46:46;;;;;;;454.38;86.55;;;1.30;99.90;;;;;;5021710;28;20049;-78
2024/01/14 07:49:12;;;;;;;410.02;79.32;;;1.30;99.90;;;;;;4999676;28;20054;-76
2024/01/14 07:51:39;;;;;;;314.13;62.10;;;1.30;99.90;;;;;;5011846;28;20045;-77
2024/01/14 07:54:06;;;;;;;354.38;68.65;;;1.30;99.90;;;;;;5004832;28;20037;-78
2024/01/14 07:56:33;;;;;;;352.60;71.95;;;1.30;99.90;;;;;;5022608;28;20045;-77
2024/01/14 07:58:59;;;;;;;347.40;66.55;;;1.30;99.90;;;;;;5035789;28;20106;-77
2024/01/14 08:01:26;;;;;;;391.80;79.20;;;1.30;99.90;;;;;;5011523;28;20052;-77
2024/01/14 08:03:53;;;;;;;329.13;65.30;;;1.30;99.90;;;;;;4998129;28;20041;-77
2024/01/14 08:06:22;;;;;;;240.55;55.13;;;1.20;99.90;;;;;;5003535;28;20091;-76
2024/01/14 08:08:49;;;;;;;345.20;71.07;;;1.30;99.90;;;;;;5028158;28;20053;-76
2024/01/14 08:11:16;;;;;;;315.98;65.55;;;1.30;99.90;;;;;;5027534;28;20044;-77
2024/01/14 08:13:43;;;;;;;313.20;61.60;;;1.30;99.90;;;;;;5012364;28;20705;-77
2024/01/14 08:16:10;;;;;;;343.42;67.32;;;1.30;99.90;;;;;;5028507;28;20044;-77
2024/01/14 08:18:37;;;;;;;361.25;66.28;;;1.30;99.90;;;;;;5028771;28;21170;-76
2024/01/14 08:21:10;;;;;;;354.52;70.38;;;1.30;99.90;;;;;;5028411;28;20072;-78
2024/01/14 08:23:38;;;;;;;370.20;70.28;;;1.40;99.90;;;;;;5020867;28;20666;-77
2024/01/14 08:26:05;;;;;;;420.98;76.28;;;1.30;99.90;;;;;;5015689;28;20045;-77
2024/01/14 08:28:35;;;;;;;470.27;79.20;;;1.40;99.90;;;;;;5026289;28;20042;-77
2024/01/14 08:31:02;;;;;;;457.05;75.32;;;1.40;99.90;;;;;;5032554;28;20040;-77
2024/01/14 08:33:29;;;;;;;500.38;79.93;;;1.30;99.90;;;;;;5021323;28;20153;-77
2024/01/14 08:35:57;;;;;;;347.70;62.38;;;1.40;99.90;;;;;;5025308;28;20104;-76
2024/01/14 08:38:24;;;;;;;540.97;88.53;;;1.30;99.90;;;;;;5029464;28;20048;-76
2024/01/14 08:40:54;;;;;;;352.88;63.20;;;1.30;99.90;;;;;;5031226;28;20630;-77
2024/01/14 08:43:20;;;;;;;578.92;93.95;;;1.30;99.90;;;;;;5013596;28;20168;-77
2024/01/14 08:45:47;;;;;;;460.27;80.05;;;1.30;99.90;;;;;;5024024;28;21391;-78
2024/01/14 08:48:15;;;;;;;545.67;87.35;;;1.30;99.90;;;;;;5028924;28;20041;-77
2024/01/14 08:50:42;;;;;;;520.00;86.75;;;1.30;99.90;;;;;;5021788;28;20135;-78
2024/01/14 08:53:08;;;;;;;452.77;82.68;;;1.30;99.90;;;;;;5030556;28;20051;-77
2024/01/14 08:55:35;;;;;;;572.47;90.43;;;1.30;99.90;;;;;;5042914;28;20080;-77
2024/01/14 08:58:02;;;;;;;502.60;82.68;;;1.30;99.90;;;;;;5026628;28;20550;-77
2024/01/14 09:00:29;;;;;;;682.78;102.47;;;1.40;99.90;;;;;;5024610;28;20055;-76
2024/01/14 09:02:55;;;;;;;480.45;84.93;;;1.40;99.90;;;;;;5034954;28;20059;-78
2024/01/14 09:05:22;;;;;;;366.35;69.65;;;1.40;99.90;;;;;;5028680;28;20087;-76
2024/01/14 09:07:49;;;;;;;285.60;61.35;;;1.40;99.90;;;;;;5032883;28;20759;-77
2024/01/14 09:10:16;;;;;;;296.27;61.42;;;1.30;99.90;;;;;;5029078;28;20638;-78
2024/01/14 09:12:45;;;;;;;246.07;50.58;;;1.30;99.90;;;;;;5016752;28;20121;-77
2024/01/14 09:15:11;;;;;;;239.85;55.58;;;1.30;99.90;;;;;;5008556;28;20046;-77
2024/01/14 09:17:38;;;;;;;300.92;61.30;;;1.30;99.90;;;;;;5030162;28;20056;-77
2024/01/14 09:20:06;;;;;;;351.60;68.75;;;1.30;99.90;;;;;;5036877;28;20113;-79
2024/01/14 09:22:33;;;;;;;423.88;77.43;;;1.30;99.90;;;;;;5027243;28;20034;-77
2024/01/14 09:25:00;;;;;;;450.23;75.22;;;1.30;99.90;;;;;;5062493;28;20041;-79
2024/01/14 09:27:30;;;;;;;513.85;85.93;;;1.30;99.90;;;;;;5027392;28;20048;-77
2024/01/14 09:29:58;;;;;;;625.88;99.10;;;1.30;99.90;;;;;;5019383;28;20499;-77
2024/01/14 09:32:25;;;;;;;647.35;98.22;;;1.30;99.90;;;;;;5024656;28;20045;-77
2024/01/14 09:34:52;;;;;;;664.22;103.07;;;1.30;99.90;;;;;;5033386;28;21342;-77
2024/01/14 09:37:19;;;;;;;676.13;96.38;;;1.30;99.90;;;;;;5013030;28;20044;-77
2024/01/14 09:39:46;;;;;;;711.88;114.18;;;1.30;99.90;;;;;;5011204;28;20048;-77
2024/01/14 09:42:36;;;;;;;609.90;103.93;;;1.30;99.90;;;;;;5012846;28;20044;-77
2024/01/14 09:45:05;;;;;;;772.58;115.00;;;1.30;99.90;;;;;;5011997;28;20102;-76
2024/01/14 09:47:33;;;;;;;706.30;115.13;;;1.30;99.90;;;;;;5013442;28;20045;-78
2024/01/14 09:50:00;;;;;;;456.02;84.00;;;1.40;99.90;;;;;;5015990;28;20044;-77
2024/01/14 09:52:31;;;;;;;385.63;76.03;;;1.40;99.90;;;;;;5010012;28;20037;-77
2024/01/14 09:54:58;;;;;;;396.80;77.65;;;1.40;99.90;;;;;;5010575;28;20045;-78
2024/01/14 09:57:27;;;;;;;323.70;70.47;;;1.30;99.90;;;;;;5026360;28;20157;-78
2024/01/14 09:59:55;;;;;;;347.17;67.90;;;1.30;99.90;;;;;;5032023;28;20542;-77
2024/01/14 10:02:24;;;;;;;315.30;63.92;;;1.40;99.90;;;;;;5013252;28;20063;-77
2024/01/14 10:04:51;;;;;;;268.45;59.67;;;1.40;99.90;;;;;;5023779;28;20195;-79
2024/01/14 10:07:18;;;;;;;293.45;61.70;;;1.30;99.90;;;;;;5025018;28;20266;-78
2024/01/14 10:09:45;;;;;;;289.40;62.22;;;1.40;99.90;;;;;;5033865;28;20051;-79
2024/01/14 10:12:13;;;;;;;247.68;55.95;;;1.40;99.90;;;;;;5035811;28;20169;-78
2024/01/14 10:14:41;;;;;;;264.73;58.47;;;1.30;99.90;;;;;;5019203;28;20095;-78
2024/01/14 10:17:08;;;;;;;272.20;61.00;;;1.30;99.90;;;;;;5031068;28;20052;-78
2024/01/14 10:19:36;;;;;;;219.10;53.10;;;1.30;99.90;;;;;;5028995;28;20045;-81
2024/01/14 10:22:03;;;;;;;215.40;49.10;;;1.30;99.90;;;;;;5034390;28;20075;-80
2024/01/14 10:24:51;;;;;;;250.20;55.45;;;1.30;99.90;;;;;;5013204;28;20047;-79
2024/01/14 10:27:22;;;;;;;261.63;57.53;;;1.20;99.90;;;;;;5025370;28;20039;-79
2024/01/14 10:30:12;;;;;;;;;;;1.20;99.90;;;;;;5034312;28;20044;-79
2024/01/14 10:32:41;;;;;;;354.23;65.35;;;1.30;99.90;;;;;;5036664;28;19923;-78
2024/01/14 10:35:28;;;;;;;313.23;61.25;;;1.30;99.90;;;;;;5050132;28;20041;-77
2024/01/14 10:37:58;;;;;;;366.83;73.07;;;1.30;99.90;;;;;;5042392;28;20083;-78
2024/01/14 10:40:25;;;;;;;323.38;68.53;;;1.30;99.90;;;;;;5023354;28;20041;-79
2024/01/14 10:42:52;;;;;;;203.70;47.42;;;1.30;99.90;;;;;;5024529;28;20041;-79
2024/01/14 10:45:19;;;;;;;278.08;57.65;;;1.30;99.90;;;;;;4989131;28;20091;-78
2024/01/14 10:47:47;;;;;;;238.48;53.30;;;1.30;99.90;;;;;;5008048;28;20041;-78
2024/01/14 10:50:17;;;;;;;222.25;49.83;;;1.20;99.90;;;;;;5022872;28;20069;-79
2024/01/14 10:52:49;;;;;;;233.10;55.70;;;1.30;99.90;;;;;;5022369;28;20040;-79
2024/01/14 10:55:42;;;;;;;238.85;54.28;;;1.30;99.90;;;;;;5029563;28;20049;-77
2024/01/14 10:58:22;;;;;;;213.63;48.70;;;1.30;99.90;;;;;;5041748;28;20053;-80
2024/01/14 11:00:53;;;;;;;203.52;49.40;;;1.30;99.90;;;;;;5005534;28;20049;-80
2024/01/14 11:03:21;;;;;;;241.63;53.33;;;1.20;99.90;;;;;;5028872;28;20049;-78
2024/01/14 11:05:48;;;;;;;272.38;62.00;;;1.20;99.90;;;;;;5025531;28;20041;-80
2024/01/14 11:08:17;;;;;;;303.23;67.60;;;1.30;99.90;;;;;;5028621;28;21076;-79
2024/01/14 11:10:44;;;;;;;223.23;51.97;;;1.20;99.90;;;;;;5026223;28;20091;-81
2024/01/14 11:13:42;;;;;;;297.92;63.30;;;1.30;99.90;;;;;;5011649;28;20079;-80
2024/01/14 11:16:23;;;;;;;280.48;58.22;;;1.30;99.90;;;;;;5014477;28;20045;-81
2024/01/14 11:18:58;;;;;;;283.13;60.00;;;1.30;99.90;;;;;;5006740;28;20139;-81
2024/01/14 11:21:46;;;;;;;291.17;63.38;;;1.30;99.90;;;;;;5041301;28;20044;-80
2024/01/14 11:24:34;;;;;;;238.27;55.10;;;1.30;99.90;;;;;;5050718;28;20119;-81
2024/01/14 11:27:03;;;;;;;285.98;60.80;;;1.30;99.90;;;;;;5012039;28;20095;-80
2024/01/14 11:29:44;;;;;;;273.40;62.70;;;1.30;99.90;;;;;;5013298;28;20064;-81
2024/01/14 11:32:13;;;;;;;312.70;65.18;;;1.30;99.90;;;;;;5009462;28;20049;-80
2024/01/14 11:35:00;;;;;;;262.50;57.53;;;1.30;99.90;;;;;;5017872;28;20137;-81
2024/01/14 11:37:44;;;;;;;265.33;59.72;;;1.30;99.90;;;;;;5029058;28;20511;-83
2024/01/14 11:40:22;;;;;;;300.00;63.70;;;1.40;99.90;;;;;;5020233;28;20064;-82
2024/01/14 11:42:56;;;;;;;274.83;53.92;;;1.40;99.90;;;;;;5015424;28;20057;-81
2024/01/14 11:45:23;;;;;;;194.07;46.17;;;1.30;99.90;;;;;;5008003;28;20454;-82
2024/01/14 11:47:51;;;;;;;261.42;58.67;;;1.30;99.90;;;;;;4996680;28;20098;-83
2024/01/14 11:50:23;;;;;;;255.48;55.95;;;1.30;99.90;;;;;;5018574;28;20076;-84
2024/01/14 11:52:52;;;;;;;281.60;62.15;;;1.30;99.90;;;;;;4998780;28;20282;-84
2024/01/14 11:55:23;;;;;;;283.20;62.95;;;1.30;99.90;;;;;;5036220;28;20046;-84
2024/01/14 11:57:51;;;;;;;322.48;67.85;;;1.30;99.90;;;;;;4997134;28;20584;-83
2024/01/14 12:00:24;;;;;;;382.75;71.22;;;1.30;99.90;;;;;;5064405;28;20040;-83
2024/01/14 12:03:04;;;;;;;410.05;79.85;;;1.30;99.90;;;;;;5055954;28;20044;-83
2024/01/14 12:05:32;;;;;;;309.25;61.40;;;1.30;99.90;;;;;;5041755;28;20573;-82
2024/01/14 12:08:00;;;;;;;302.98;63.97;;;1.30;99.90;;;;;;5029122;28;20048;-82
2024/01/14 12:10:32;;;;;;;330.13;65.85;;;1.30;99.90;;;;;;5033751;28;20121;-83
2024/01/14 12:13:03;;;;;;;368.90;72.13;;;1.30;99.90;;;;;;5018562;28;20067;-84
2024/01/14 12:15:30;;;;;;;253.80;59.15;;;1.30;99.90;;;;;;5012567;28;20145;-83
2024/01/14 12:18:04;;;;;;;315.52;66.93;;;1.30;99.90;;;;;;5013289;28;20493;-83
2024/01/14 12:20:31;;;;;;;348.63;74.95;;;1.30;99.90;;;;;;5038565;28;20021;-84
2024/01/14 12:22:59;;;;;;;372.05;73.75;;;1.30;99.90;;;;;;5043612;28;20029;-83
2024/01/14 12:25:26;;;;;;;328.55;68.68;;;1.30;99.90;;;;;;5051074;28;20033;-83
2024/01/14 12:27:57;;;;;;;300.02;65.25;;;1.30;99.90;;;;;;5025759;28;20060;-82
2024/01/14 12:30:34;;;;;;;246.10;56.55;;;1.30;99.90;;;;;;5033975;28;20091;-82